Ceres, United Kingdom
Current Conditions -  °F | °C
As of 2:50 PM on Sunday 21 Dec 2014 (Local Time) from EGQL Reporting Station
Light Rain Light Rain  
Wind Chill: 52°   Ceiling: 2200
Heat Index: 52°   Visibility: 6mi
Dew Point: 48°   Wind: 24mph
Humidity: 88%   Direction: 250°WSW
Pressure: 29.65"   Gusts: NA
Location:  56.29°N, 2.97°W
Report Text: EGQL 211450Z 25021KT 9999 -RA FEW015 BKN022 11/09 Q1004 WHT
Loading
Personal Weather Stations






























Interactive Weather Map New forecast layout! Learn more

10-Day Weather Forecast

Advertisements
Track Severe Weather on mobile